Ridgecrest, CA (93555)

01:05 PM PDT am 04. Mai 2015 (GMT -0700)
City Hall | | Change Station
CLOSE
Current Station
Persönliche Wetterstationen
Location: Ridgecrest, CA
Höhe: 2315 ft
Wetterstationen in der Umgebung

Höhe 2315 ft 35.62 °N, 117.67 °W | Updated 1 second ago

Heiter
Heiter
85.3 °F
gefühlte 82 °F
N
6.0
Wind Wechselnd Wind aus West-Südwest
Gusts 15.0 mph

Heute
Max. -- | schwach -- °F
--% Regenrisiko
Gestern
Max. -- | schwach -- °F
Precip. -- inch
5:55 AM 7:39 PM
Vollmond, 100% visible
Druck 29.78 inch
Sichtweite 10.0 Meilen
Wolken Few 10000 ft
Few 22000 ft
Hitzeindex 82 °F
Taupunkt 29 °F
Feuchtigkeit 13%
Regen 0.00 inch
Schneehöhe Nicht verfügbar..
UV 11 von 12
Pollen 7.20 von 12
Luftqualität Nicht verfügbar..
Flu Activity Sporadic
METAR KNID 041956Z VRB06KT 10SM FEW100 FEW220 28/M03 A2983 RMK AO2 SLP084 MDT CU DSNT N T02831028 $

More Conditions Fewer Conditions

Druck 29.78 inch
Sichtweite 10.0 Meilen
Wolken Few 10000 ft
Few 22000 ft
Hitzeindex 82 °F
Taupunkt 29 °F
Feuchtigkeit 13%
Regen 0.00 inch
Schneehöhe Nicht verfügbar..
UV 11 von 12
Pollen 7.20 von 12
Luftqualität Nicht verfügbar..
Flu Activity Sporadic
METAR KNID 041956Z VRB06KT 10SM FEW100 FEW220 28/M03 A2983 RMK AO2 SLP084 MDT CU DSNT N T02831028 $

More Conditions Fewer Conditions

Nepal has a long way to go to dig out and rebuild from a devastating earthquake. We have teamed up with several charities and organizations to make contributing to the relief effort as easy as possible.
How you can help: Portlight Strategies | Red Cross

10-Day Weather Forecast

Almanac

Astronomie

May. 04, 2015 Aufgang Untergang
Genaue Zeit
Bürgerliche Dämmerung
Nautische Dämmerung
Astronomische Dämmerung
Mond
Länge des sichtbaren Lichts
Tageslänge
Tomorrow will be .
, % of the Moon is Illuminated

Heutige Rekorde

State Highs State Lows

Community

WunderPhotos

Upload Photos

1,818,679 Fotos hochgeladen!

WunderBlogs® & News

Nearby

Luftqualität

  Luftqualität LQ Index Schadstoff
Not available.

Schneehöhe

Station Depth Höhe

Erdbebenaktivität

Stadt Distance Mag. Time & Date
Minimum magnitude displayed is 2.5.

küstennahe Wassertemperaturen

Ort Temperatur

Stations

Wetterstationen in der Umgebung

Stationsstandort Temp. Windchill Taupunkt Feuchtigkeit Wind Precip. Höhe Aktualisiert Art